Time;durP1;ratioP1;P1;durP2;ratioP2;P2;SDS_P1;SDS_P2;PMS_P1;PMS_P2;Temp;Humidity;BMP_temperature;BMP_pressure;BME280_temperature;BME280_humidity;BME280_pressure;Samples;Min_cycle;Max_cycle;Signal;HPM_P1;HPM_P2
2022/07/26 00:00:42;;;;;;;12.33;10.10;;;;;;;23.93;60.64;96906.19;6270489;22;20166;-71
2022/07/26 00:03:09;;;;;;;10.57;9.53;;;;;;;23.83;60.90;96900.16;6268993;22;20166;-71
2022/07/26 00:05:37;;;;;;;10.93;9.80;;;;;;;24.00;60.78;96908.06;6270554;22;20725;-71
2022/07/26 00:08:11;;;;;;;10.83;9.40;;;;;;;23.77;61.49;96906.06;6271160;22;20642;-71
2022/07/26 00:10:47;;;;;;;12.07;10.43;;;;;;;23.45;62.28;96901.38;6270317;22;20161;-71
2022/07/26 00:13:17;;;;;;;14.37;10.00;;;;;;;23.39;62.45;96907.25;6243359;22;20246;-71
2022/07/26 00:15:45;;;;;;;11.20;10.00;;;;;;;23.41;62.16;96900.84;6243638;22;20502;-70
2022/07/26 00:18:13;;;;;;;10.50;9.20;;;;;;;23.49;62.37;96908.03;6270455;22;20166;-70
2022/07/26 00:20:40;;;;;;;13.17;9.13;;;;;;;23.62;61.79;96903.16;6274085;22;20192;-72
2022/07/26 00:23:07;;;;;;;9.97;8.97;;;;;;;23.58;62.18;96901.81;6301539;22;20168;-73
2022/07/26 00:25:34;;;;;;;11.73;9.47;;;;;;;23.29;62.63;96901.19;6274498;22;20162;-72
2022/07/26 00:28:01;;;;;;;10.37;9.27;;;;;;;23.08;63.65;96888.28;6301417;22;20469;-73
2022/07/26 00:30:28;;;;;;;11.77;9.97;;;;;;;22.92;63.96;96882.84;6301275;22;20165;-73
2022/07/26 00:32:55;;;;;;;10.30;9.13;;;;;;;22.89;64.36;96890.25;6301296;22;20227;-72
2022/07/26 00:35:23;;;;;;;10.67;9.57;;;;;;;22.67;65.17;96889.69;6273993;22;20171;-72
2022/07/26 00:37:50;;;;;;;11.17;8.87;;;;;;;22.65;65.61;96891.63;6301165;22;20270;-72
2022/07/26 00:40:17;;;;;;;9.97;8.97;;;;;;;22.61;65.31;96878.88;6300892;22;20171;-73
2022/07/26 00:42:45;;;;;;;10.47;9.37;;;;;;;22.86;64.99;96893.16;6301381;22;20167;-72
2022/07/26 00:45:13;;;;;;;10.10;9.10;;;;;;;22.97;65.03;96885.88;6301105;22;20161;-73
2022/07/26 00:47:40;;;;;;;9.83;8.73;;;;;;;23.29;63.77;96885.34;6301430;22;20210;-73
2022/07/26 00:50:11;;;;;;;10.90;8.33;;;;;;;23.66;62.56;96886.00;6301042;22;20175;-73
2022/07/26 00:52:42;;;;;;;9.50;8.50;;;;;;;23.63;62.77;96880.19;6300797;22;20243;-72
2022/07/26 00:55:09;;;;;;;10.13;8.83;;;;;;;23.61;62.28;96880.34;6274137;22;20187;-73
2022/07/26 00:57:37;;;;;;;10.13;8.60;;;;;;;23.43;62.81;96877.72;6300726;22;20167;-71
2022/07/26 01:00:09;;;;;;;9.83;8.67;;;;;;;23.57;62.69;96864.94;6301033;22;20169;-72
2022/07/26 01:02:36;;;;;;;12.47;8.53;;;;;;;23.84;61.67;96870.94;6300729;22;20170;-72
2022/07/26 01:05:03;;;;;;;9.67;8.17;;;;;;;24.07;61.20;96866.78;6300843;22;20211;-71
2022/07/26 01:07:30;;;;;;;9.63;7.90;;;;;;;24.30;60.55;96860.97;6300340;22;20163;-71
2022/07/26 01:09:57;;;;;;;9.37;8.37;;;;;;;24.43;59.72;96863.97;6300604;22;20239;-71
2022/07/26 01:12:24;;;;;;;10.03;8.63;;;;;;;24.54;59.24;96863.69;6301063;22;20165;-71
2022/07/26 01:14:51;;;;;;;9.70;8.70;;;;;;;24.57;59.69;96863.34;6301157;22;20622;-70
2022/07/26 01:17:18;;;;;;;11.23;8.90;;;;;;;24.44;58.79;96868.28;6300886;22;20162;-70
2022/07/26 01:19:45;;;;;;;11.00;9.40;;;;;;;24.17;59.34;96853.44;6300554;22;20174;-70
2022/07/26 01:22:12;;;;;;;11.67;9.73;;;;;;;24.07;59.18;96861.50;6269952;22;20620;-70
2022/07/26 01:24:41;;;;;;;10.33;9.07;;;;;;;24.04;59.59;96871.56;6269918;22;20165;-70
2022/07/26 01:27:08;;;;;;;12.03;9.47;;;;;;;23.99;59.82;96861.41;6269854;22;20166;-71
2022/07/26 01:29:35;;;;;;;11.07;9.53;;;;;;;23.91;60.30;96856.09;6270098;22;20165;-72
2022/07/26 01:32:03;;;;;;;12.43;9.90;;;;;;;23.83;61.65;96857.84;6269616;22;20161;-71
2022/07/26 01:34:31;;;;;;;11.30;10.03;;;;;;;23.85;61.83;96853.22;6268034;22;20280;-72
2022/07/26 01:36:58;;;;;;;11.90;10.27;;;;;;;23.86;62.81;96855.75;6269677;22;20226;-72
2022/07/26 01:39:25;;;;;;;11.87;10.20;;;;;;;23.61;63.41;96822.19;6269789;22;20700;-71
2022/07/26 01:41:53;;;;;;;12.70;10.77;;;;;;;23.90;63.50;96843.84;6267949;22;20165;-72
2022/07/26 01:44:21;;;;;;;12.10;10.90;;;;;;;23.96;63.00;96852.97;6269651;22;20177;-71
2022/07/26 01:46:48;;;;;;;11.17;9.97;;;;;;;23.95;63.27;96849.50;6269919;22;20254;-72
2022/07/26 01:49:16;;;;;;;11.87;10.63;;;;;;;23.94;63.17;96857.59;6269509;22;20232;-70
2022/07/26 01:51:43;;;;;;;12.20;10.73;;;;;;;23.95;63.73;96844.19;6267950;22;20172;-72
2022/07/26 01:54:11;;;;;;;12.17;10.20;;;;;;;23.81;63.32;96839.50;6269469;22;20201;-71
2022/07/26 01:56:38;;;;;;;11.67;10.10;;;;;;;23.56;61.67;96839.47;6269504;22;20578;-71
2022/07/26 01:59:05;;;;;;;15.77;11.37;;;;;;;23.03;63.94;96844.81;6269734;22;20166;-71
2022/07/26 02:01:32;;;;;;;12.90;10.77;;;;;;;23.09;64.98;96852.13;6269448;22;20223;-72
2022/07/26 02:04:57;;;;;;;12.70;11.10;;;;;;;22.99;65.92;96844.28;6269701;22;20172;-71
2022/07/26 02:06:55;;;;;;;13.57;11.10;;;;;;;22.95;64.56;96856.16;6269265;22;20231;-70
2022/07/26 02:09:22;;;;;;;14.03;12.00;;;;;;;22.44;65.41;96840.06;6269513;22;20185;-71
2022/07/26 02:11:51;;;;;;;15.37;12.10;;;;;;;22.17;66.44;96842.69;6269274;22;20249;-71
2022/07/26 02:14:18;;;;;;;17.03;12.03;;;;;;;21.64;68.30;96848.53;6269202;22;20685;-70
2022/07/26 02:16:58;;;;;;;14.70;12.20;;;;;;;21.04;70.38;96838.38;6269390;22;20221;-72
2022/07/26 02:19:27;;;;;;;16.13;13.40;;;;;;;21.04;70.81;96844.47;6268931;22;20191;-72
2022/07/26 02:21:55;;;;;;;14.17;10.97;;;;;;;21.08;71.03;96851.09;6267543;22;20209;-71
2022/07/26 02:24:22;;;;;;;14.60;12.13;;;;;;;21.25;70.66;96848.72;6269322;22;20214;-72
2022/07/26 02:26:49;;;;;;;13.90;11.30;;;;;;;21.43;70.35;96839.16;6269369;22;20229;-71
2022/07/26 02:29:16;;;;;;;14.70;11.83;;;;;;;21.61;69.79;96834.81;6267633;22;20206;-72
2022/07/26 02:31:43;;;;;;;13.60;12.00;;;;;;;21.36;70.77;96838.06;6269128;22;20191;-71
2022/07/26 02:34:15;;;;;;;15.17;12.37;;;;;;;21.18;71.36;96847.66;6269439;22;20661;-71
2022/07/26 02:36:42;;;;;;;15.07;12.90;;;;;;;20.92;72.66;96847.31;6269223;22;20165;-72
2022/07/26 02:39:10;;;;;;;14.73;12.07;;;;;;;21.06;72.41;96844.34;6269423;22;20162;-72
2022/07/26 02:41:37;;;;;;;19.97;14.00;;;;;;;20.88;72.76;96833.63;6269141;22;20189;-72
2022/07/26 02:44:05;;;;;;;18.33;12.43;;;;;;;20.90;73.37;96847.47;6268938;22;20226;-70
2022/07/26 02:46:32;;;;;;;13.93;12.50;;;;;;;20.98;73.15;96837.09;6269071;22;20584;-73
2022/07/26 02:48:59;;;;;;;17.20;13.03;;;;;;;20.82;74.02;96844.72;6269363;22;20582;-71
2022/07/26 02:51:27;;;;;;;15.63;12.77;;;;;;;20.72;74.73;96851.75;6269471;22;20617;-74
2022/07/26 02:53:54;;;;;;;17.63;13.67;;;;;;;20.81;74.21;96861.44;6268785;22;20713;-72
2022/07/26 02:56:21;;;;;;;17.30;13.53;;;;;;;20.69;74.17;96861.75;6269160;22;20165;-72
2022/07/26 02:58:48;;;;;;;19.47;14.97;;;;;;;20.45;75.02;96867.34;6267546;22;20172;-72
2022/07/26 03:01:15;;;;;;;21.70;15.33;;;;;;;20.49;75.59;96860.84;6269144;22;20165;-72
2022/07/26 03:03:42;;;;;;;23.70;15.23;;;;;;;20.45;75.56;96853.38;6269040;22;20579;-72
2022/07/26 03:06:16;;;;;;;23.33;15.63;;;;;;;20.65;75.26;96849.81;6292883;22;20222;-72
2022/07/26 03:08:43;;;;;;;22.73;15.23;;;;;;;20.93;74.09;96857.75;6269557;22;20189;-72
2022/07/26 03:11:10;;;;;;;30.23;17.73;;;;;;;21.05;73.23;96854.03;6269238;22;20717;-71
2022/07/26 03:13:38;;;;;;;27.07;16.53;;;;;;;21.14;72.63;96856.81;6268930;22;20215;-71
2022/07/26 03:16:09;;;;;;;30.33;18.27;;;;;;;21.13;72.06;96868.28;6268767;22;20215;-71
2022/07/26 03:18:36;;;;;;;34.67;19.07;;;;;;;21.12;72.34;96850.84;6268905;22;20165;-71
2022/07/26 03:21:04;;;;;;;35.37;18.73;;;;;;;21.06;72.08;96860.94;6268602;22;20259;-71
2022/07/26 03:23:32;;;;;;;29.97;18.97;;;;;;;20.94;72.80;96855.91;6268653;22;20166;-72
2022/07/26 03:26:01;;;;;;;27.87;19.77;;;;;;;20.94;72.86;96862.03;6269155;22;20181;-71
2022/07/26 03:28:30;;;;;;;28.40;19.07;;;;;;;20.92;72.68;96871.03;6267160;22;20170;-71
2022/07/26 03:30:58;;;;;;;40.13;23.03;;;;;;;20.97;72.56;96864.41;6270781;22;20169;-72
2022/07/26 03:33:25;;;;;;;41.03;21.87;;;;;;;21.10;72.12;96868.59;6270502;22;20629;-72
2022/07/26 03:35:52;;;;;;;35.20;20.77;;;;;;;21.18;71.81;96864.28;6270669;22;20200;-72
2022/07/26 03:38:20;;;;;;;34.93;20.87;;;;;;;21.16;71.73;96860.13;6270674;22;20257;-71
2022/07/26 03:40:47;;;;;;;39.00;20.87;;;;;;;21.08;71.65;96853.75;6270385;22;20167;-72
2022/07/26 03:43:14;;;;;;;38.13;21.43;;;;;;;21.29;71.24;96861.50;6271004;22;20171;-72
2022/07/26 03:45:44;;;;;;;30.63;20.60;;;;;;;21.46;70.09;96857.31;6268622;22;20201;-71
2022/07/26 03:48:12;;;;;;;34.67;21.03;;;;;;;21.63;69.48;96865.34;6270205;22;20169;-71
2022/07/26 03:50:39;;;;;;;34.90;21.53;;;;;;;22.10;68.00;96871.47;6270120;22;20162;-71
2022/07/26 03:53:06;;;;;;;33.73;21.00;;;;;;;22.54;66.12;96878.63;6270562;22;20172;-71
2022/07/26 03:58:20;;;;;;;32.43;19.37;;;;;;;22.88;64.65;96870.09;6268801;22;20183;-72
2022/07/26 04:00:47;;;;;;;35.70;19.93;;;;;;;22.71;65.32;96863.00;6269743;22;20169;-71
2022/07/26 04:03:14;;;;;;;29.93;20.07;;;;;;;22.65;65.84;96875.78;6268735;22;20174;-73
2022/07/26 04:05:41;;;;;;;28.00;17.73;;;;;;;22.71;65.86;96869.09;6270295;22;20176;-72
2022/07/26 04:08:15;;;;;;;25.57;17.63;;;;;;;23.27;64.29;96866.16;6270448;22;20248;-73
2022/07/26 04:10:46;;;;;;;24.77;16.97;;;;;;;23.74;62.75;96864.09;6270046;22;20164;-72
2022/07/26 04:13:13;;;;;;;22.83;15.13;;;;;;;23.86;62.31;96871.59;6270296;22;20559;-71
2022/07/26 04:15:40;;;;;;;22.83;16.20;;;;;;;23.75;61.93;96874.50;6269902;22;20615;-72
2022/07/26 04:18:07;;;;;;;25.73;16.07;;;;;;;23.72;62.86;96866.06;6269737;22;20164;-73
2022/07/26 04:20:34;;;;;;;20.83;15.70;;;;;;;24.08;61.17;96868.47;6269300;22;20547;-72
2022/07/26 04:23:01;;;;;;;23.03;17.43;;;;;;;24.17;61.06;96858.75;6270059;22;20232;-73
2022/07/26 04:25:28;;;;;;;29.03;15.90;;;;;;;24.54;60.07;96861.03;6268156;22;20173;-72
2022/07/26 04:28:08;;;;;;;22.10;14.77;;;;;;;25.07;58.71;96852.75;6269715;22;20159;-72
2022/07/26 04:30:35;;;;;;;21.13;13.80;;;;;;;25.31;58.83;96850.94;6270347;22;20701;-72
2022/07/26 04:33:02;;;;;;;21.47;14.33;;;;;;;25.32;58.42;96865.84;6270133;22;20643;-71
2022/07/26 04:35:29;;;;;;;15.43;12.07;;;;;;;25.72;57.56;96859.72;6269998;22;20200;-72
2022/07/26 04:37:56;;;;;;;15.00;12.13;;;;;;;25.75;57.13;96856.75;6269936;22;20222;-72
2022/07/26 04:40:26;;;;;;;14.00;12.00;;;;;;;25.48;57.97;96863.22;6267749;22;20222;-72
2022/07/26 04:42:55;;;;;;;19.10;12.90;;;;;;;25.56;57.69;96863.22;6270009;22;20237;-72
2022/07/26 04:45:21;;;;;;;16.40;13.00;;;;;;;25.83;56.79;96857.56;6269887;22;20946;-72
2022/07/26 04:47:49;;;;;;;16.97;12.73;;;;;;;25.96;56.14;96851.72;6270087;22;20160;-73
2022/07/26 04:50:18;;;;;;;15.47;12.73;;;;;;;25.81;56.18;96851.59;6269877;22;20172;-72
2022/07/26 04:52:46;;;;;;;18.07;12.50;;;;;;;25.77;56.34;96855.59;6269728;22;20169;-71
2022/07/26 04:55:13;;;;;;;18.67;11.77;;;;;;;25.68;56.69;96861.06;6269706;22;20195;-72
2022/07/26 04:57:41;;;;;;;15.20;12.67;;;;;;;25.94;56.40;96850.25;6269768;22;20165;-72
2022/07/26 05:00:10;;;;;;;16.13;12.10;;;;;;;26.00;55.47;96845.09;6269870;22;20672;-72
2022/07/26 05:02:56;;;;;;;15.70;11.27;;;;;;;25.84;55.96;96840.63;6269628;22;20164;-73
2022/07/26 05:05:24;;;;;;;15.67;11.93;;;;;;;25.95;55.71;96846.56;6269742;22;20163;-73
2022/07/26 05:07:54;;;;;;;16.17;12.73;;;;;;;26.18;55.22;96847.53;6269220;22;20192;-72
2022/07/26 05:10:28;;;;;;;18.57;13.23;;;;;;;26.29;55.13;96840.03;6269597;22;20164;-74
2022/07/26 05:12:55;;;;;;;17.87;12.07;;;;;;;26.41;55.01;96848.44;6269748;22;20169;-72
2022/07/26 05:15:22;;;;;;;16.93;12.40;;;;;;;26.56;55.14;96846.72;6269271;22;20188;-72
2022/07/26 05:17:50;;;;;;;19.13;12.83;;;;;;;26.42;54.72;96845.63;6269503;22;20168;-73
2022/07/26 05:20:17;;;;;;;15.47;13.10;;;;;;;26.79;54.34;96846.81;6269038;22;20192;-73
2022/07/26 05:22:44;;;;;;;15.63;12.93;;;;;;;26.33;55.78;96837.88;6269259;22;20210;-72
2022/07/26 05:25:12;;;;;;;17.60;12.40;;;;;;;26.38;55.06;96841.66;6269317;22;20251;-72
2022/07/26 05:27:40;;;;;;;17.60;12.93;;;;;;;26.50;55.53;96842.13;6269152;22;20227;-72
2022/07/26 05:30:08;;;;;;;17.53;12.23;;;;;;;26.86;54.42;96837.94;6269064;22;20188;-72
2022/07/26 05:32:36;;;;;;;14.13;12.70;;;;;;;27.06;54.05;96844.44;6268964;22;20209;-72
2022/07/26 05:35:04;;;;;;;12.80;11.50;;;;;;;26.74;54.45;96839.34;6267476;22;20200;-72
2022/07/26 05:37:31;;;;;;;14.33;12.27;;;;;;;26.85;54.72;96836.31;6269160;22;20517;-72
2022/07/26 05:39:58;;;;;;;12.40;11.10;;;;;;;27.25;54.16;96832.50;6269271;22;20172;-71
2022/07/26 05:42:25;;;;;;;15.30;11.13;;;;;;;27.03;54.01;96836.84;6269571;22;20160;-73
2022/07/26 05:44:52;;;;;;;14.97;11.20;;;;;;;27.02;53.97;96832.53;6267404;22;20169;-72
2022/07/26 05:47:22;;;;;;;10.93;9.80;;;;;;;27.05;53.91;96841.97;6269238;22;20234;-73
2022/07/26 05:49:49;;;;;;;12.30;10.37;;;;;;;26.99;53.80;96824.91;6269132;22;20161;-73
2022/07/26 05:52:16;;;;;;;10.90;9.77;;;;;;;27.46;52.38;96843.34;6269647;22;20169;-74
2022/07/26 05:54:43;;;;;;;19.87;10.73;;;;;;;27.46;52.58;96842.50;6269289;22;20583;-72
2022/07/26 05:57:10;;;;;;;12.77;10.47;;;;;;;27.96;51.26;96838.25;6268887;22;20161;-72
2022/07/26 05:59:37;;;;;;;10.67;9.47;;;;;;;28.06;50.91;96844.13;6268535;22;20190;-72
2022/07/26 06:02:07;;;;;;;15.60;9.40;;;;;;;27.94;51.06;96812.78;6269195;22;20618;-73
2022/07/26 06:04:34;;;;;;;10.47;8.60;;;;;;;28.05;50.54;96826.47;6269016;22;20686;-73
2022/07/26 06:07:02;;;;;;;10.10;9.00;;;;;;;28.35;50.36;96840.63;6268914;22;20903;-74
2022/07/26 06:09:29;;;;;;;11.60;8.77;;;;;;;28.37;49.58;96835.94;6267637;22;20267;-72
2022/07/26 06:11:56;;;;;;;13.23;8.90;;;;;;;28.65;50.52;96836.09;6267143;22;20173;-73
2022/07/26 06:14:23;;;;;;;12.07;10.10;;;;;;;28.70;48.89;96831.03;6266733;22;20275;-74
2022/07/26 06:16:50;;;;;;;11.47;8.83;;;;;;;28.76;48.62;96831.13;6269175;22;20172;-72
2022/07/26 06:19:18;;;;;;;11.70;8.50;;;;;;;28.90;48.18;96822.25;6270104;22;20169;-73
2022/07/26 06:21:45;;;;;;;10.03;9.10;;;;;;;28.46;49.21;96828.69;6268887;22;20200;-73
2022/07/26 06:24:13;;;;;;;11.83;8.67;;;;;;;28.50;48.59;96813.97;6267329;22;20470;-73
2022/07/26 06:26:40;;;;;;;11.07;9.37;;;;;;;28.49;49.37;96796.31;6292851;22;20173;-73
2022/07/26 06:29:07;;;;;;;11.73;9.10;;;;;;;28.54;49.65;96821.38;6268699;22;20172;-74
2022/07/26 06:31:34;;;;;;;19.57;10.00;;;;;;;28.57;49.75;96814.88;6268795;22;20594;-72
2022/07/26 06:34:01;;;;;;;11.17;9.13;;;;;;;28.37;49.80;96816.47;6268145;22;20249;-71
2022/07/26 06:36:28;;;;;;;11.53;8.67;;;;;;;28.52;49.49;96807.41;6268028;22;20183;-73
2022/07/26 06:38:57;;;;;;;12.07;9.10;;;;;;;28.71;48.37;96806.84;6269062;22;20165;-74
2022/07/26 06:41:24;;;;;;;10.20;8.70;;;;;;;28.90;47.84;96800.09;6268282;22;20184;-72
2022/07/26 06:43:51;;;;;;;10.23;7.80;;;;;;;29.06;47.33;96801.69;6266728;22;20529;-72
2022/07/26 06:46:19;;;;;;;11.67;9.43;;;;;;;29.09;47.97;96806.63;6266651;22;20204;-73
2022/07/26 06:48:50;;;;;;;9.07;8.17;;;;;;;29.55;46.61;96799.91;6268600;22;20169;-72
2022/07/26 06:51:18;;;;;;;9.30;7.80;;;;;;;29.67;46.35;96803.69;6268311;22;20192;-73
2022/07/26 06:53:45;;;;;;;9.90;8.63;;;;;;;29.93;45.95;96800.38;6267949;22;20509;-73
2022/07/26 06:56:13;;;;;;;10.60;8.70;;;;;;;30.24;46.01;96801.59;6268383;22;20192;-73
2022/07/26 06:58:41;;;;;;;9.50;7.80;;;;;;;30.23;44.97;96797.25;6267990;22;20168;-73
2022/07/26 07:01:08;;;;;;;20.70;16.43;;;;;;;29.85;44.99;96801.38;6268668;22;20171;-73
2022/07/26 07:03:36;;;;;;;10.37;8.00;;;;;;;29.78;45.85;96787.13;6267907;22;20164;-73
2022/07/26 07:06:03;;;;;;;11.97;9.37;;;;;;;30.17;44.51;96783.88;6267981;22;20168;-74
2022/07/26 07:08:30;;;;;;;11.60;9.07;;;;;;;30.24;44.68;96788.22;6266400;22;20173;-73
2022/07/26 07:10:58;;;;;;;8.63;7.73;;;;;;;30.29;44.29;96790.31;6268132;22;20168;-73
2022/07/26 07:13:27;;;;;;;7.93;7.13;;;;;;;29.85;44.79;96771.16;6266082;22;20260;-73
2022/07/26 07:15:54;;;;;;;8.77;7.87;;;;;;;29.80;44.98;96782.44;6267815;22;20600;-72
2022/07/26 07:18:21;;;;;;;8.07;7.27;;;;;;;29.48;46.25;96788.34;6268478;22;20171;-72
2022/07/26 07:20:48;;;;;;;12.17;10.20;;;;;;;29.84;45.17;96798.91;6267675;22;20249;-70
2022/07/26 07:23:15;;;;;;;11.47;10.10;;;;;;;30.18;44.95;96785.53;6268006;22;20172;-72
2022/07/26 07:25:42;;;;;;;13.30;10.37;;;;;;;30.06;45.12;96787.94;6267588;22;20562;-72
2022/07/26 07:28:10;;;;;;;8.63;7.80;;;;;;;30.10;44.52;96783.84;6268276;22;20195;-73
2022/07/26 07:30:37;;;;;;;11.23;8.03;;;;;;;30.28;44.28;96796.66;6267862;22;20169;-72
2022/07/26 07:33:08;;;;;;;10.73;9.53;;;;;;;30.42;44.23;96793.91;6267692;22;20179;-72
2022/07/26 07:35:49;;;;;;;15.33;8.77;;;;;;;30.75;43.28;96795.88;6243756;22;20520;-72
2022/07/26 07:38:16;;;;;;;9.93;8.30;;;;;;;30.78;43.02;96790.09;6267407;22;20610;-72
2022/07/26 07:40:43;;;;;;;8.93;8.03;;;;;;;30.84;42.98;96792.81;6268319;22;20165;-71
2022/07/26 07:43:10;;;;;;;9.47;8.50;;;;;;;31.00;43.46;96788.94;6268016;22;20623;-74
2022/07/26 07:45:37;;;;;;;12.40;8.90;;;;;;;31.21;43.65;96794.13;6268115;22;20160;-72
2022/07/26 07:48:05;;;;;;;11.83;8.80;;;;;;;31.08;42.37;96794.94;6268042;22;20161;-72
2022/07/26 07:50:32;;;;;;;11.57;9.63;;;;;;;30.98;43.49;96786.47;6267821;22;20191;-71
2022/07/26 07:53:00;;;;;;;9.87;8.83;;;;;;;30.67;43.05;96777.31;6266388;22;20173;-72
2022/07/26 07:55:28;;;;;;;9.60;8.20;;;;;;;30.57;43.13;96790.25;6268164;22;20266;-71
2022/07/26 07:58:09;;;;;;;9.90;8.87;;;;;;;30.83;43.40;96782.31;6268033;22;20168;-72
2022/07/26 08:00:37;;;;;;;12.13;9.43;;;;;;;30.80;43.36;96777.34;6266705;22;20165;-72
2022/07/26 08:03:04;;;;;;;11.80;9.57;;;;;;;30.91;43.76;96787.50;6268311;22;20164;-72
2022/07/26 08:05:31;;;;;;;13.10;11.67;;;;;;;30.95;43.12;96772.69;6268705;22;20164;-72
2022/07/26 08:07:58;;;;;;;11.60;10.27;;;;;;;31.16;42.72;96773.31;6267033;22;20731;-72
2022/07/26 08:10:25;;;;;;;9.90;9.00;;;;;;;31.19;42.03;96785.47;6269243;22;20173;-73
2022/07/26 08:12:52;;;;;;;10.23;8.90;;;;;;;31.37;42.14;96774.97;6269107;22;20506;-71
2022/07/26 08:15:22;;;;;;;11.83;8.60;;;;;;;31.37;41.79;96771.50;6268847;22;20192;-72
2022/07/26 08:17:49;;;;;;;10.10;7.85;;;;;;;31.30;42.12;96774.19;6271123;22;20194;-71
2022/07/26 08:20:21;;;;;;;8.35;7.57;;;;;;;31.22;42.48;96775.19;6268256;22;20232;-71
2022/07/26 08:22:49;;;;;;;8.83;8.00;;;;;;;30.87;43.05;96771.00;6271284;22;20165;-72
2022/07/26 08:25:16;;;;;;;9.87;8.97;;;;;;;30.49;43.57;96761.84;6270840;22;20180;-73
2022/07/26 08:27:43;;;;;;;9.47;8.40;;;;;;;30.47;43.55;96754.03;6268220;22;20175;-73
2022/07/26 08:30:28;;;;;;;10.23;9.23;;;;;;;30.49;44.74;96751.97;6270723;22;20165;-74
2022/07/26 08:32:55;;;;;;;10.57;9.47;;;;;;;30.81;44.18;96750.41;6270395;22;20179;-72
2022/07/26 08:35:22;;;;;;;11.67;8.57;;;;;;;30.74;43.34;96756.78;6269892;22;20193;-72
2022/07/26 08:37:49;;;;;;;9.90;8.90;;;;;;;30.74;43.54;96746.91;6269580;22;20229;-73
2022/07/26 08:40:17;;;;;;;9.10;8.20;;;;;;;30.83;42.72;96739.53;6269577;22;20179;-72
2022/07/26 08:42:55;;;;;;;9.10;8.00;;;;;;;30.61;43.53;96738.84;6269144;22;20169;-72
2022/07/26 08:45:27;;;;;;;11.93;8.80;;;;;;;30.60;43.89;96749.75;6269353;22;20561;-72
2022/07/26 08:47:55;;;;;;;10.53;8.50;;;;;;;30.73;43.71;96742.56;6269447;22;20620;-72
2022/07/26 08:50:43;;;;;;;12.33;9.50;;;;;;;30.79;42.80;96741.75;6293676;22;20644;-73
2022/07/26 08:53:11;;;;;;;14.57;12.20;;;;;;;31.01;43.32;96739.78;6269598;22;20219;-72
2022/07/26 08:55:39;;;;;;;9.47;8.53;;;;;;;30.88;43.03;96739.75;6269062;22;20242;-72
2022/07/26 08:58:26;;;;;;;9.90;8.90;;;;;;;30.78;43.21;96731.28;6269357;22;20195;-72
2022/07/26 09:01:07;;;;;;;10.10;8.47;;;;;;;30.82;42.00;96729.84;6269478;22;20219;-73
2022/07/26 09:03:37;;;;;;;17.63;13.23;;;;;;;31.04;42.32;96734.84;6266891;22;20160;-73
2022/07/26 09:06:16;;;;;;;11.33;9.20;;;;;;;31.19;41.16;96729.28;6266985;22;20173;-72
2022/07/26 09:08:45;;;;;;;12.07;9.53;;;;;;;31.68;39.80;96723.47;6268826;22;20164;-73
2022/07/26 09:11:29;;;;;;;10.60;8.20;;;;;;;31.52;39.99;96719.41;6268883;22;20222;-71
2022/07/26 09:14:05;;;;;;;10.87;8.97;;;;;;;31.64;39.81;96715.06;6269119;22;20161;-72
2022/07/26 09:16:32;;;;;;;9.52;8.63;;;;;;;31.76;39.89;96709.88;6268886;22;20192;-74
2022/07/26 09:19:21;;;;;;;11.40;9.50;;;;;;;32.06;39.68;96714.56;6269673;22;20165;-73
2022/07/26 09:21:49;;;;;;;10.07;9.07;;;;;;;31.60;40.22;96718.34;6268891;22;20200;-73
2022/07/26 09:24:30;;;;;;;10.13;8.55;;;;;;;31.47;40.70;96713.03;6268771;22;20172;-73
2022/07/26 09:26:59;;;;;;;10.93;8.55;;;;;;;31.49;40.13;96722.47;6268533;22;20168;-73
2022/07/26 09:29:29;;;;;;;9.10;8.20;;;;;;;31.52;40.51;96714.06;6268649;22;20218;-72
2022/07/26 09:32:17;;;;;;;13.77;9.30;;;;;;;31.87;40.53;96710.06;6268778;22;20161;-72
2022/07/26 09:34:49;;;;;;;9.40;8.27;;;;;;;32.24;39.29;96702.31;6268425;22;20211;-72
2022/07/26 09:37:33;;;;;;;11.25;8.70;;;;;;;32.27;38.81;96709.94;6268391;22;20251;-73
2022/07/26 09:40:02;;;;;;;9.38;7.53;;;;;;;32.32;38.04;96707.44;6269341;22;20168;-71
2022/07/26 09:42:29;;;;;;;11.10;9.43;;;;;;;32.00;38.29;96699.34;6268076;22;20248;-72
2022/07/26 09:44:57;;;;;;;10.68;8.27;;;;;;;32.54;37.74;96696.19;6268788;22;20211;-72
2022/07/26 09:47:35;;;;;;;9.23;8.32;;;;;;;32.83;37.45;96700.13;6268466;22;20164;-73
2022/07/26 09:50:20;;;;;;;9.27;8.10;;;;;;;32.96;36.74;96689.31;6268432;22;20160;-71
2022/07/26 09:53:07;;;;;;;8.57;7.78;;;;;;;32.83;37.16;96692.09;6268718;22;20168;-71
2022/07/26 09:55:53;;;;;;;9.23;8.05;;;;;;;32.99;36.79;96686.25;6268023;22;20314;-72
2022/07/26 09:58:22;;;;;;;8.40;7.53;;;;;;;32.97;37.14;96690.16;6268040;22;20165;-72
2022/07/26 10:00:49;;;;;;;7.72;6.93;;;;;;;32.83;36.51;96681.34;6268561;22;20164;-72
2022/07/26 10:03:16;;;;;;;9.00;7.38;;;;;;;32.75;36.29;96682.44;6266911;22;20169;-72
2022/07/26 10:05:43;;;;;;;8.60;7.60;;;;;;;32.86;35.99;96676.41;6268249;22;20218;-73
2022/07/26 10:08:11;;;;;;;8.40;7.40;;;;;;;33.00;36.10;96679.81;6266220;22;20165;-72
2022/07/26 10:10:54;;;;;;;8.18;7.38;;;;;;;33.12;35.88;96672.69;6268600;22;20165;-72
2022/07/26 10:13:22;;;;;;;9.68;8.45;;;;;;;33.31;35.39;96674.38;6269244;22;20262;-72
2022/07/26 10:15:50;;;;;;;8.55;7.78;;;;;;;33.63;35.23;96664.41;6268253;22;20200;-72
2022/07/26 10:18:35;;;;;;;8.23;7.43;;;;;;;33.60;34.82;96672.88;6268703;22;20612;-72
2022/07/26 10:21:24;;;;;;;8.52;7.53;;;;;;;33.24;34.68;96657.50;6268458;22;20202;-73
2022/07/26 10:23:59;;;;;;;10.77;7.90;;;;;;;33.26;34.82;96654.63;6268707;22;20664;-73
2022/07/26 10:26:31;;;;;;;8.35;7.30;;;;;;;33.50;34.78;96653.78;6266614;22;20164;-72
2022/07/26 10:29:22;;;;;;;8.30;7.50;;;;;;;33.67;34.05;96642.22;6266777;22;20207;-73
2022/07/26 10:31:55;;;;;;;9.90;7.50;;;;;;;33.40;34.48;96648.91;6269200;22;20733;-73
2022/07/26 10:34:38;;;;;;;7.82;7.00;;;;;;;33.47;33.78;96648.81;6269054;22;20160;-73
2022/07/26 10:37:20;;;;;;;7.88;7.07;;;;;;;33.49;33.98;96652.16;6266672;22;20196;-72
2022/07/26 10:39:47;;;;;;;7.68;6.82;;;;;;;33.43;33.52;96626.97;6268924;22;20222;-73
2022/07/26 10:42:14;;;;;;;11.25;8.57;;;;;;;33.08;34.10;96638.47;6269030;22;20218;-73
2022/07/26 10:44:43;;;;;;;8.55;7.50;;;;;;;33.26;34.49;96625.88;6268688;22;20656;-73
2022/07/26 10:47:17;;;;;;;8.55;7.75;;;;;;;33.29;34.16;96635.38;6268409;22;20719;-73
2022/07/26 10:49:55;;;;;;;7.38;6.47;;;;;;;33.35;33.89;96638.00;6268751;22;20160;-73
2022/07/26 10:52:24;;;;;;;7.30;6.60;;;;;;;32.94;34.61;96635.03;6268421;22;20160;-73
2022/07/26 10:54:57;;;;;;;8.45;7.18;;;;;;;33.15;34.30;96636.53;6267183;22;20670;-73
2022/07/26 10:57:46;;;;;;;8.10;7.40;;;;;;;33.60;33.67;96625.34;6268831;22;20174;-73
2022/07/26 11:00:16;;;;;;;9.65;7.28;;;;;;;34.04;33.38;96631.47;6266415;22;20184;-72
2022/07/26 11:02:47;;;;;;;11.68;7.55;;;;;;;34.34;32.20;96638.50;6266295;22;20165;-73
2022/07/26 11:05:17;;;;;;;7.90;7.18;;;;;;;34.34;31.77;96629.59;6268441;22;20214;-73
2022/07/26 11:07:53;;;;;;;7.90;6.70;;;;;;;34.37;31.45;96629.16;6268257;22;20176;-72
2022/07/26 11:10:26;;;;;;;9.48;6.97;;;;;;;34.41;30.91;96620.41;6266822;22;20172;-73
2022/07/26 11:13:01;;;;;;;7.72;6.70;;;;;;;34.51;30.63;96609.13;6268080;22;20174;-73
2022/07/26 11:15:28;;;;;;;7.75;7.00;;;;;;;34.37;30.68;96615.72;6267051;22;20220;-73
2022/07/26 11:18:05;;;;;;;6.90;6.30;;;;;;;34.26;30.79;96609.25;6268815;22;20214;-73
2022/07/26 11:20:33;;;;;;;7.35;6.75;;;;;;;34.44;30.70;96597.59;6268368;22;20208;-73
2022/07/26 11:23:00;;;;;;;7.68;6.88;;;;;;;34.56;30.74;96593.09;6268569;22;20705;-73
2022/07/26 11:25:27;;;;;;;7.40;6.57;;;;;;;34.63;29.70;96590.28;6268298;22;20184;-72
2022/07/26 11:28:03;;;;;;;7.57;6.82;;;;;;;34.72;29.70;96592.44;6268345;22;20176;-73
2022/07/26 11:30:34;;;;;;;7.85;6.57;;;;;;;34.63;30.10;96590.28;6292277;22;20160;-72
2022/07/26 11:33:04;;;;;;;7.70;6.90;;;;;;;34.55;30.18;96582.56;6268437;22;20165;-71
2022/07/26 11:35:31;;;;;;;8.57;6.65;;;;;;;34.92;29.69;96579.47;6266424;22;21044;-73
2022/07/26 11:38:00;;;;;;;8.35;7.45;;;;;;;34.90;29.59;96581.56;6268462;22;20168;-73